Time;durP1;ratioP1;P1;durP2;ratioP2;P2;SDS_P1;SDS_P2;PMS_P1;PMS_P2;Temp;Humidity;BMP_temperature;BMP_pressure;BME280_temperature;BME280_humidity;BME280_pressure;Samples;Min_cycle;Max_cycle;Signal;HPM_P1;HPM_P2
2024/04/15 00:01:43;;;;;;;;;;;;;;;10.99;55.53;101536.11;107102;1275;22630;-45
2024/04/15 00:04:10;;;;;;;;;;;;;;;10.94;55.98;101530.34;107007;1275;23066;-45
2024/04/15 00:06:39;;;;;;;;;;;;;;;10.88;56.07;101527.73;107132;1275;22520;-44
2024/04/15 00:09:05;;;;;;;;;;;;;;;10.85;56.38;101523.85;107013;1275;24209;-46
2024/04/15 00:11:32;;;;;;;;;;;;;;;10.82;56.67;101519.55;107009;1275;25850;-46
2024/04/15 00:13:58;;;;;;;;;;;;;;;10.80;56.97;101512.77;107078;1275;23932;-49
2024/04/15 00:16:25;;;;;;;;;;;;;;;10.76;57.03;101512.95;107052;1275;22589;-49
2024/04/15 00:18:52;;;;;;;;;;;;;;;10.72;57.12;101509.40;106958;1256;24151;-50
2024/04/15 00:21:18;;;;;;;;;;;;;;;10.69;57.40;101510.80;106901;1275;22523;-51
2024/04/15 00:23:45;;;;;;;;;;;;;;;10.65;57.53;101510.60;106857;1275;22504;-48
2024/04/15 00:26:15;;;;;;;;;;;;;;;10.61;57.52;101504.77;106897;1275;22481;-48
2024/04/15 00:28:41;;;;;;;;;;;;;;;10.58;57.34;101499.63;106954;1275;25191;-47
2024/04/15 00:31:08;;;;;;;;;;;;;;;10.55;57.43;101496.77;106976;1275;25384;-47
2024/04/15 00:33:35;;;;;;;;;;;;;;;10.52;57.59;101483.66;106864;1275;23934;-51
2024/04/15 00:36:01;;;;;;;;;;;;;;;10.48;57.87;101476.92;106904;1275;22492;-52
2024/04/15 00:38:28;;;;;;;;;;;;;;;10.44;58.27;101473.40;106942;1275;24202;-53
2024/04/15 00:40:54;;;;;;;;;;;;;;;10.41;59.21;101471.08;106894;1275;22463;-51
2024/04/15 00:43:21;;;;;;;;;;;;;;;10.37;59.84;101466.13;106937;1275;22678;-51
2024/04/15 00:45:47;;;;;;;;;;;;;;;10.34;60.51;101461.86;106874;1272;25249;-52
2024/04/15 00:48:15;;;;;;;;;;;;;;;10.31;61.13;101461.27;107004;1275;22531;-45
2024/04/15 00:50:43;;;;;;;;;;;;;;;10.27;61.69;101454.38;106936;1275;24053;-51
2024/04/15 00:53:10;;;;;;;;;;;;;;;10.24;62.10;101449.90;107077;1275;22528;-47
2024/04/15 00:55:37;;;;;;;;;;;;;;;10.19;62.64;101440.23;106972;1275;24079;-51
2024/04/15 00:58:04;;;;;;;;;;;;;;;10.16;62.96;101440.17;107034;1275;22500;-52
2024/04/15 01:00:30;;;;;;;;;;;;;;;10.14;63.58;101436.23;106947;1275;22599;-51
2024/04/15 01:02:59;;;;;;;;;;;;;;;10.09;64.10;101432.39;107061;1275;24947;-45
2024/04/15 01:05:26;;;;;;;;;;;;;;;10.05;64.38;101424.81;107255;1275;22412;-46
2024/04/15 01:07:53;;;;;;;;;;;;;;;10.00;64.70;101416.36;106982;1275;22634;-43
2024/04/15 01:10:19;;;;;;;;;;;;;;;9.95;65.04;101413.58;106957;1275;22552;-46
2024/04/15 01:12:49;;;;;;;;;;;;;;;9.92;65.30;101411.45;106871;1275;23836;-45
2024/04/15 01:15:15;;;;;;;;;;;;;;;9.88;65.57;101408.05;106866;1275;24161;-45
2024/04/15 01:17:42;;;;;;;;;;;;;;;9.84;65.97;101411.60;106850;1275;22655;-47
2024/04/15 01:20:09;;;;;;;;;;;;;;;9.79;66.15;101401.92;106892;1275;22626;-44
2024/04/15 01:22:40;;;;;;;;;;;;;;;9.76;66.44;101399.25;106898;1275;22434;-44
2024/04/15 01:25:07;;;;;;;;;;;;;;;9.71;66.72;101392.76;106885;1275;24171;-45
2024/04/15 01:27:34;;;;;;;;;;;;;;;9.68;67.12;101389.17;106964;1275;22459;-45
2024/04/15 01:30:00;;;;;;;;;;;;;;;9.64;67.45;101388.64;107084;1275;22442;-44
2024/04/15 01:32:27;;;;;;;;;;;;;;;9.61;67.63;101385.98;107073;1275;25166;-45
2024/04/15 01:34:53;;;;;;;;;;;;;;;9.57;67.86;101390.38;107139;1275;22511;-45
2024/04/15 01:37:20;;;;;;;;;;;;;;;9.54;68.12;101390.00;106927;1272;22680;-44
2024/04/15 01:39:46;;;;;;;;;;;;;;;9.50;68.46;101384.88;106880;1275;22520;-46
2024/04/15 01:42:13;;;;;;;;;;;;;;;9.47;68.69;101385.52;106901;1275;22432;-44
2024/04/15 01:44:40;;;;;;;;;;;;;;;9.43;69.00;101386.19;106919;1275;22662;-45
2024/04/15 01:47:07;;;;;;;;;;;;;;;9.39;69.31;101387.09;106992;1275;22522;-46
2024/04/15 01:49:34;;;;;;;;;;;;;;;9.35;69.49;101388.14;107086;1275;22705;-45
2024/04/15 01:52:01;;;;;;;;;;;;;;;9.32;69.87;101384.59;106977;1263;25166;-46
2024/04/15 01:54:27;;;;;;;;;;;;;;;9.30;70.08;101385.19;106890;1275;24283;-45
2024/04/15 01:56:54;;;;;;;;;;;;;;;9.27;70.30;101379.33;106884;1275;25220;-46
2024/04/15 01:59:20;;;;;;;;;;;;;;;9.23;70.47;101375.05;106987;1275;24033;-44
2024/04/15 02:01:47;;;;;;;;;;;;;;;9.21;70.69;101374.79;107063;1273;22527;-45
2024/04/15 02:04:14;;;;;;;;;;;;;;;9.20;70.61;101373.80;106947;1275;22437;-43
2024/04/15 02:06:40;;;;;;;;;;;;;;;9.18;70.85;101374.36;106743;1275;245601;-43
2024/04/15 02:09:07;;;;;;;;;;;;;;;9.17;70.92;101370.91;106870;1275;25726;-44
2024/04/15 02:11:36;;;;;;;;;;;;;;;9.17;71.01;101367.40;106865;1275;22498;-45
2024/04/15 02:14:03;;;;;;;;;;;;;;;9.15;70.97;101362.16;106924;1275;25200;-49
2024/04/15 02:16:29;;;;;;;;;;;;;;;9.15;71.20;101356.91;106982;1270;22482;-44
2024/04/15 02:18:56;;;;;;;;;;;;;;;9.13;71.09;101349.57;106977;1275;24170;-46
2024/04/15 02:21:22;;;;;;;;;;;;;;;9.12;70.98;101341.70;107147;1275;22422;-44
2024/04/15 02:23:49;;;;;;;;;;;;;;;9.10;70.95;101335.05;107027;1275;24206;-44
2024/04/15 02:26:15;;;;;;;;;;;;;;;9.10;71.12;101332.58;107059;1275;24423;-46
2024/04/15 02:28:42;;;;;;;;;;;;;;;9.08;71.14;101326.16;106995;1275;24185;-44
2024/04/15 02:31:08;;;;;;;;;;;;;;;9.08;71.14;101322.83;107102;1275;22563;-45
2024/04/15 02:33:35;;;;;;;;;;;;;;;9.07;71.28;101317.55;106910;1275;24141;-46
2024/04/15 02:36:02;;;;;;;;;;;;;;;9.07;71.40;101316.67;106865;1275;22523;-44
2024/04/15 02:38:28;;;;;;;;;;;;;;;9.07;71.25;101311.23;106885;1275;25398;-44
2024/04/15 02:40:55;;;;;;;;;;;;;;;9.05;71.39;101312.33;106880;1275;22566;-44
2024/04/15 02:43:22;;;;;;;;;;;;;;;9.05;71.55;101307.59;107043;1275;22509;-44
2024/04/15 02:45:48;;;;;;;;;;;;;;;9.05;71.64;101303.86;106994;1275;24042;-44
2024/04/15 02:48:16;;;;;;;;;;;;;;;9.04;71.67;101304.63;107016;1275;22920;-44
2024/04/15 02:50:42;;;;;;;;;;;;;;;9.04;71.69;101299.36;107163;1275;22642;-48
2024/04/15 02:53:09;;;;;;;;;;;;;;;9.03;71.77;101295.70;106911;1275;25331;-45
2024/04/15 02:55:38;;;;;;;;;;;;;;;9.02;71.82;101292.73;106952;1275;23808;-47
2024/04/15 02:58:05;;;;;;;;;;;;;;;9.02;71.76;101292.04;106880;1275;23933;-49
2024/04/15 03:00:32;;;;;;;;;;;;;;;9.01;71.79;101291.02;106859;1275;22930;-50
2024/04/15 03:02:59;;;;;;;;;;;;;;;9.01;71.85;101290.50;106962;1275;24154;-50
2024/04/15 03:05:26;;;;;;;;;;;;;;;8.99;71.86;101291.27;107085;1275;22663;-47
2024/04/15 03:07:52;;;;;;;;;;;;;;;8.98;71.88;101291.52;106876;1263;22508;-48
2024/04/15 03:10:19;;;;;;;;;;;;;;;8.97;71.92;101285.92;106885;1275;22624;-51
2024/04/15 03:12:51;;;;;;;;;;;;;;;8.96;71.98;101287.02;106880;1275;22679;-50
2024/04/15 03:15:18;;;;;;;;;;;;;;;8.95;71.96;101285.80;107069;1269;22712;-50
2024/04/15 03:17:47;;;;;;;;;;;;;;;8.94;71.97;101281.95;107001;1275;22527;-48
2024/04/15 03:20:13;;;;;;;;;;;;;;;8.94;72.08;101279.89;107003;1275;22630;-47
2024/04/15 03:22:40;;;;;;;;;;;;;;;8.93;72.01;101273.93;106962;1269;25343;-44
2024/04/15 03:25:07;;;;;;;;;;;;;;;8.92;72.14;101271.84;106915;1275;22852;-44
2024/04/15 03:27:33;;;;;;;;;;;;;;;8.91;72.00;101265.53;106884;1275;24199;-43
2024/04/15 03:30:00;;;;;;;;;;;;;;;8.90;72.17;101262.25;106889;1275;24726;-44
2024/04/15 03:32:26;;;;;;;;;;;;;;;8.89;72.16;101261.76;106991;1275;25919;-44
2024/04/15 03:34:53;;;;;;;;;;;;;;;8.88;72.20;101252.98;107122;1275;22531;-45
2024/04/15 03:37:20;;;;;;;;;;;;;;;8.88;72.43;101252.46;107255;1272;22495;-44
2024/04/15 03:39:48;;;;;;;;;;;;;;;8.84;72.39;101248.02;106978;1275;25204;-44
2024/04/15 03:42:14;;;;;;;;;;;;;;;8.84;72.49;101243.12;106888;1275;24137;-47
2024/04/15 03:44:43;;;;;;;;;;;;;;;8.83;72.56;101237.86;106843;1275;24298;-43
2024/04/15 03:47:10;;;;;;;;;;;;;;;8.81;72.60;101230.16;107011;1275;25401;-44
2024/04/15 03:49:37;;;;;;;;;;;;;;;8.81;72.60;101223.49;107167;1275;22933;-43
2024/04/15 03:52:04;;;;;;;;;;;;;;;8.79;72.61;101220.77;107108;1275;25211;-45
2024/04/15 03:54:33;;;;;;;;;;;;;;;8.76;72.63;101215.23;107024;1275;24135;-44
2024/04/15 03:56:59;;;;;;;;;;;;;;;8.74;72.63;101210.55;106904;1275;22469;-44
2024/04/15 03:59:26;;;;;;;;;;;;;;;8.72;72.65;101201.46;106873;1275;22790;-44
2024/04/15 04:01:55;;;;;;;;;;;;;;;8.71;72.81;101198.19;106917;1275;24208;-43
2024/04/15 04:04:22;;;;;;;;;;;;;;;8.71;72.85;101191.86;106986;1275;22422;-44
2024/04/15 04:06:49;;;;;;;;;;;;;;;8.70;72.86;101191.55;107366;1275;22443;-44
2024/04/15 04:09:15;;;;;;;;;;;;;;;8.71;72.77;101192.73;107284;1275;22636;-45
2024/04/15 04:11:42;;;;;;;;;;;;;;;8.71;72.87;101184.60;107012;1275;24299;-45
2024/04/15 04:14:09;;;;;;;;;;;;;;;8.72;72.92;101184.23;106967;1275;22633;-45
2024/04/15 04:16:35;;;;;;;;;;;;;;;8.74;72.91;101185.39;107025;1275;23876;-46
2024/04/15 04:19:02;;;;;;;;;;;;;;;8.75;72.86;101181.98;107104;1275;24378;-44
2024/04/15 04:21:28;;;;;;;;;;;;;;;8.75;73.05;101174.92;107046;1275;22501;-44
2024/04/15 04:23:57;;;;;;;;;;;;;;;8.75;72.97;101172.64;106866;1275;22488;-44
2024/04/15 04:26:24;;;;;;;;;;;;;;;8.75;73.01;101169.46;107058;1275;23987;-43
2024/04/15 04:28:51;;;;;;;;;;;;;;;8.75;72.99;101162.79;106992;1275;25374;-43
2024/04/15 04:31:17;;;;;;;;;;;;;;;8.73;73.02;101159.69;106874;1275;22499;-43
2024/04/15 04:33:44;;;;;;;;;;;;;;;8.70;73.10;101152.59;106863;1275;22527;-45
2024/04/15 04:36:15;;;;;;;;;;;;;;;8.68;73.15;101152.89;106967;1275;22440;-44
2024/04/15 04:38:42;;;;;;;;;;;;;;;8.64;73.31;101151.63;107052;1275;22665;-46
2024/04/15 04:41:09;;;;;;;;;;;;;;;8.61;73.39;101154.41;106901;1275;25261;-44
2024/04/15 04:43:35;;;;;;;;;;;;;;;8.56;73.57;101147.05;107014;1275;22677;-45
2024/04/15 04:46:12;;;;;;;;;;;;;;;8.51;73.69;101145.48;106965;1275;22901;-44
2024/04/15 04:48:39;;;;;;;;;;;;;;;8.47;73.79;101138.29;106917;1272;25329;-44
2024/04/15 04:51:05;;;;;;;;;;;;;;;8.42;73.92;101138.45;106890;1275;25341;-47
2024/04/15 04:53:32;;;;;;;;;;;;;;;8.40;74.03;101142.43;106990;1275;24256;-45
2024/04/15 04:56:05;;;;;;;;;;;;;;;8.39;73.98;101137.35;106941;1275;22646;-44
2024/04/15 04:58:32;;;;;;;;;;;;;;;8.38;74.15;101131.92;106962;1266;22644;-44
2024/04/15 05:01:09;;;;;;;;;;;;;;;8.39;74.16;101128.01;106958;1273;24179;-43
2024/04/15 05:03:42;;;;;;;;;;;;;;;8.41;74.44;101129.36;107178;1275;25357;-44
2024/04/15 05:06:10;;;;;;;;;;;;;;;8.43;74.44;101123.99;107224;1275;22525;-44
2024/04/15 05:08:37;;;;;;;;;;;;;;;8.46;74.64;101122.13;106942;1275;22682;-49
2024/04/15 05:11:04;;;;;;;;;;;;;;;8.47;74.50;101119.25;106949;1275;22631;-45
2024/04/15 05:13:31;;;;;;;;;;;;;;;8.49;74.67;101115.14;106965;1275;25272;-43
2024/04/15 05:16:04;;;;;;;;;;;;;;;8.50;74.85;101117.39;106887;1275;24221;-44
2024/04/15 05:18:31;;;;;;;;;;;;;;;8.48;74.88;101114.27;106953;1275;22474;-44
2024/04/15 05:20:59;;;;;;;;;;;;;;;8.47;75.07;101113.10;106912;1275;22496;-44
2024/04/15 05:23:26;;;;;;;;;;;;;;;8.46;74.95;101111.72;107213;1275;22443;-45
2024/04/15 05:25:53;;;;;;;;;;;;;;;8.44;75.19;101106.15;107071;1275;22440;-44
2024/04/15 05:28:20;;;;;;;;;;;;;;;8.42;75.34;101097.99;106947;1275;23984;-45
2024/04/15 05:30:47;;;;;;;;;;;;;;;8.40;75.48;101102.27;106863;1275;22474;-43
2024/04/15 05:33:13;;;;;;;;;;;;;;;8.38;75.40;101098.11;106847;1275;23010;-46
2024/04/15 05:35:40;;;;;;;;;;;;;;;8.37;75.55;101098.36;107198;1275;24237;-46
2024/04/15 05:38:07;;;;;;;;;;;;;;;8.35;75.67;101093.15;107016;1275;24588;-45
2024/04/15 05:40:33;;;;;;;;;;;;;;;8.33;75.80;101095.89;106997;1275;24215;-44
2024/04/15 05:43:00;;;;;;;;;;;;;;;8.31;76.07;101095.10;106956;1275;22434;-47
2024/04/15 05:45:26;;;;;;;;;;;;;;;8.30;76.25;101090.90;106896;1275;22442;-45
2024/04/15 05:47:56;;;;;;;;;;;;;;;8.29;76.56;101085.30;107018;1275;24909;-44
2024/04/15 05:50:23;;;;;;;;;;;;;;;8.29;76.78;101076.86;107147;1275;22616;-46
2024/04/15 05:52:49;;;;;;;;;;;;;;;8.29;76.90;101071.06;107012;1275;24237;-43
2024/04/15 05:55:16;;;;;;;;;;;;;;;8.29;76.96;101083.02;106967;1275;22505;-44
2024/04/15 05:57:43;;;;;;;;;;;;;;;8.28;76.99;101070.90;106968;1275;22486;-43
2024/04/15 06:00:10;;;;;;;;;;;;;;;8.28;76.96;101068.27;106988;1275;22665;-44
2024/04/15 06:02:37;;;;;;;;;;;;;;;8.28;77.06;101073.23;106904;1275;22718;-44
2024/04/15 06:05:04;;;;;;;;;;;;;;;8.27;77.18;101073.75;106867;1275;25387;-45
2024/04/15 06:07:30;;;;;;;;;;;;;;;8.30;77.46;101072.96;106874;1275;25410;-44
2024/04/15 06:09:57;;;;;;;;;;;;;;;8.31;77.32;101076.04;106852;1275;25386;-46
2024/04/15 06:12:24;;;;;;;;;;;;;;;8.37;77.69;101071.41;106954;1275;22449;-45
2024/04/15 06:14:51;;;;;;;;;;;;;;;8.42;77.69;101063.83;107040;1275;22650;-45
2024/04/15 06:17:18;;;;;;;;;;;;;;;8.47;77.53;101055.50;106921;1275;22678;-45
2024/04/15 06:19:44;;;;;;;;;;;;;;;8.51;77.55;101057.11;107103;1275;22518;-47
2024/04/15 06:22:11;;;;;;;;;;;;;;;8.55;77.31;101052.83;107099;1270;22440;-46
2024/04/15 06:24:38;;;;;;;;;;;;;;;8.61;77.24;101052.73;107012;1275;22519;-44
2024/04/15 06:27:05;;;;;;;;;;;;;;;8.68;77.23;101048.39;107047;1270;22442;-46
2024/04/15 06:29:31;;;;;;;;;;;;;;;8.76;77.29;101046.25;107022;1275;23771;-48
2024/04/15 06:31:58;;;;;;;;;;;;;;;8.84;77.21;101043.77;106865;1272;23651;-45
2024/04/15 06:34:26;;;;;;;;;;;;;;;8.91;77.05;101038.36;106890;1275;22440;-44
2024/04/15 06:36:53;;;;;;;;;;;;;;;8.96;76.87;101033.55;106949;1275;25356;-45
2024/04/15 06:39:20;;;;;;;;;;;;;;;9.00;76.88;101032.31;107020;1272;22499;-45
2024/04/15 06:41:46;;;;;;;;;;;;;;;9.04;76.75;101024.20;107063;1272;23190;-47
2024/04/15 06:44:13;;;;;;;;;;;;;;;9.09;76.69;101021.48;106972;1272;23108;-46
2024/04/15 06:46:40;;;;;;;;;;;;;;;9.14;76.48;101025.30;107172;1275;22625;-44
2024/04/15 06:49:07;;;;;;;;;;;;;;;9.19;76.59;101015.89;106975;1275;22511;-46
2024/04/15 06:51:36;;;;;;;;;;;;;;;9.24;76.37;101010.70;106910;1275;24308;-47
2024/04/15 06:54:02;;;;;;;;;;;;;;;9.30;76.14;101005.30;106883;1275;22519;-50
2024/04/15 06:56:29;;;;;;;;;;;;;;;9.36;75.94;100997.46;106859;1275;23864;-44
2024/04/15 06:58:55;;;;;;;;;;;;;;;9.41;75.87;100997.02;106873;1275;22531;-44
2024/04/15 07:01:22;;;;;;;;;;;;;;;9.47;75.47;100989.33;106912;1275;22936;-45
2024/04/15 07:03:49;;;;;;;;;;;;;;;9.54;75.32;100984.06;106878;1275;22725;-46
2024/04/15 07:06:16;;;;;;;;;;;;;;;9.61;75.34;100978.36;107184;1275;22631;-45
2024/04/15 07:08:43;;;;;;;;;;;;;;;9.69;75.05;100961.90;106996;1275;22450;-45
2024/04/15 07:11:10;;;;;;;;;;;;;;;9.80;74.96;100955.90;107024;1275;23870;-47
2024/04/15 07:13:39;;;;;;;;;;;;;;;9.92;74.82;100954.42;107033;1275;22785;-50
2024/04/15 07:16:06;;;;;;;;;;;;;;;10.06;74.49;100955.95;107134;1275;22634;-50
2024/04/15 07:18:32;;;;;;;;;;;;;;;10.21;74.19;100949.16;106987;1275;22646;-52
2024/04/15 07:20:59;;;;;;;;;;;;;;;10.35;73.50;100942.42;107196;1273;22655;-46
2024/04/15 07:23:26;;;;;;;;;;;;;;;10.49;73.07;100937.25;107123;1275;22651;-51
2024/04/15 07:25:59;;;;;;;;;;;;;;;10.60;72.10;100931.04;106950;1275;22633;-48
2024/04/15 07:28:26;;;;;;;;;;;;;;;10.70;71.77;100931.17;107007;1275;22471;-44
2024/04/15 07:30:57;;;;;;;;;;;;;;;10.79;71.22;100923.58;106935;1275;22527;-49
2024/04/15 07:33:24;;;;;;;;;;;;;;;10.89;70.97;100920.20;107100;1275;22561;-46
2024/04/15 07:35:57;;;;;;;;;;;;;;;10.98;70.70;100917.59;107267;1275;22535;-44
2024/04/15 07:38:24;;;;;;;;;;;;;;;11.11;70.76;100904.98;107042;1275;25386;-50
2024/04/15 07:40:50;;;;;;;;;;;;;;;11.23;69.69;100893.52;106948;1275;22577;-45
2024/04/15 07:43:17;;;;;;;;;;;;;;;11.32;69.53;100891.41;106967;1275;22517;-46
2024/04/15 07:45:44;;;;;;;;;;;;;;;11.42;69.62;100889.77;107008;1275;22499;-45
2024/04/15 07:48:10;;;;;;;;;;;;;;;11.50;68.73;100885.05;106941;1275;22451;-44
2024/04/15 07:50:37;;;;;;;;;;;;;;;11.57;68.01;100872.42;106876;1275;24903;-46
2024/04/15 07:53:04;;;;;;;;;;;;;;;11.62;67.53;100866.98;106889;1275;24262;-44
2024/04/15 07:55:30;;;;;;;;;;;;;;;11.64;66.74;100863.85;106882;1275;22524;-45
2024/04/15 07:57:57;;;;;;;;;;;;;;;11.67;66.41;100858.36;106856;1275;22470;-48
2024/04/15 08:00:24;;;;;;;;;;;;;;;11.68;66.22;100855.64;106850;1275;22589;-46
2024/04/15 08:02:50;;;;;;;;;;;;;;;11.72;66.31;100851.64;106899;1275;22579;-45
2024/04/15 08:05:17;;;;;;;;;;;;;;;11.76;65.78;100847.17;106908;1275;23367;-44
2024/04/15 08:07:43;;;;;;;;;;;;;;;11.81;65.54;100840.13;106831;1275;22495;-43
2024/04/15 08:10:11;;;;;;;;;;;;;;;11.87;65.43;100834.82;106904;1275;24346;-45
2024/04/15 08:12:37;;;;;;;;;;;;;;;11.92;65.36;100833.45;106899;1275;22566;-44
2024/04/15 08:15:06;;;;;;;;;;;;;;;12.00;65.39;100828.57;106961;1275;24059;-46
2024/04/15 08:17:33;;;;;;;;;;;;;;;12.07;65.18;100822.41;106955;1275;22426;-44
2024/04/15 08:20:00;;;;;;;;;;;;;;;12.16;64.37;100820.65;106867;1275;22649;-45
2024/04/15 08:22:26;;;;;;;;;;;;;;;12.23;64.16;100820.52;107029;1275;22495;-45
2024/04/15 08:24:53;;;;;;;;;;;;;;;12.32;63.83;100814.66;107011;1275;24087;-45
2024/04/15 08:27:19;;;;;;;;;;;;;;;12.40;63.34;100809.88;106978;1275;22511;-46
2024/04/15 08:29:46;;;;;;;;;;;;;;;12.47;62.89;100800.73;106861;1275;22480;-45
2024/04/15 08:32:13;;;;;;;;;;;;;;;12.54;61.95;100794.25;107021;1275;24142;-45
2024/04/15 08:34:40;;;;;;;;;;;;;;;12.60;61.44;100786.98;107060;1275;25399;-49
2024/04/15 08:37:07;;;;;;;;;;;;;;;12.65;61.07;100775.99;106856;1275;23036;-51
2024/04/15 08:39:35;;;;;;;;;;;;;;;12.71;61.57;100774.35;107097;1275;22656;-47
2024/04/15 08:42:07;;;;;;;;;;;;;;;12.78;61.49;100770.69;106998;1275;24193;-45
2024/04/15 08:44:34;;;;;;;;;;;;;;;12.84;61.06;100762.03;106989;1275;22694;-44
2024/04/15 08:47:04;;;;;;;;;;;;;;;12.86;60.33;100754.02;107018;1275;25288;-45
2024/04/15 08:49:31;;;;;;;;;;;;;;;12.89;60.06;100744.10;107072;1275;25191;-43
2024/04/15 08:51:58;;;;;;;;;;;;;;;12.93;59.83;100734.36;107095;1275;25278;-46
2024/04/15 08:54:24;;;;;;;;;;;;;;;12.98;59.82;100724.17;106997;1275;22418;-45
2024/04/15 08:56:51;;;;;;;;;;;;;;;13.04;59.30;100718.92;106764;1275;22652;-45
2024/04/15 08:59:17;;;;;;;;;;;;;;;13.05;58.71;100711.73;106999;1275;22618;-46
2024/04/15 09:01:44;;;;;;;;;;;;;;;13.07;58.01;100708.97;107070;1275;25381;-45
2024/04/15 09:04:11;;;;;;;;;;;;;;;13.09;57.88;100701.20;106925;1275;22474;-45
2024/04/15 09:06:38;;;;;;;;;;;;;;;13.18;58.26;100700.27;106999;1275;24132;-46
2024/04/15 09:09:05;;;;;;;;;;;;;;;13.26;57.77;100696.48;106938;1275;22492;-45
2024/04/15 09:11:34;;;;;;;;;;;;;;;13.33;57.30;100689.77;106914;1275;23927;-46
2024/04/15 09:14:01;;;;;;;;;;;;;;;13.38;56.94;100692.10;107036;1275;22425;-46
2024/04/15 09:16:28;;;;;;;;;;;;;;;13.42;56.17;100687.08;107028;1275;25346;-46
2024/04/15 09:18:54;;;;;;;;;;;;;;;13.43;56.14;100683.23;107017;1275;22442;-50
2024/04/15 09:21:21;;;;;;;;;;;;;;;13.48;56.25;100678.42;106977;1275;22739;-49
2024/04/15 09:23:49;;;;;;;;;;;;;;;13.55;55.95;100663.55;106946;1275;22428;-51
2024/04/15 09:26:16;;;;;;;;;;;;;;;13.65;55.96;100654.35;106912;1275;22432;-50
2024/04/15 09:28:42;;;;;;;;;;;;;;;13.77;55.88;100645.31;106901;1275;24353;-50
2024/04/15 09:31:09;;;;;;;;;;;;;;;13.91;55.74;100641.24;106821;1275;22481;-51
2024/04/15 09:33:36;;;;;;;;;;;;;;;14.12;56.13;100638.10;106860;1275;22451;-48
2024/04/15 09:36:03;;;;;;;;;;;;;;;14.35;55.82;100627.88;106954;1275;24199;-48
2024/04/15 09:38:29;;;;;;;;;;;;;;;14.53;55.04;100624.58;106995;1275;22887;-48
2024/04/15 09:40:56;;;;;;;;;;;;;;;14.65;54.05;100616.02;106926;1275;24329;-48
2024/04/15 09:43:23;;;;;;;;;;;;;;;14.73;53.78;100608.05;106871;1275;25277;-48
2024/04/15 09:45:50;;;;;;;;;;;;;;;14.82;53.70;100598.48;106837;1275;22628;-51
2024/04/15 09:48:17;;;;;;;;;;;;;;;14.88;53.35;100585.73;106881;1275;24107;-49
2024/04/15 09:50:46;;;;;;;;;;;;;;;14.91;52.50;100580.77;106883;1275;24440;-48
2024/04/15 09:53:16;;;;;;;;;;;;;;;14.88;51.65;100579.38;106863;1275;22442;-51
2024/04/15 09:55:44;;;;;;;;;;;;;;;14.82;50.78;100571.68;106940;1275;22436;-50
2024/04/15 09:58:11;;;;;;;;;;;;;;;14.76;50.51;100568.72;106943;1275;23981;-48
2024/04/15 10:00:38;;;;;;;;;;;;;;;14.73;50.57;100562.90;106882;1275;24152;-50
2024/04/15 10:03:08;;;;;;;;;;;;;;;14.70;50.30;100559.09;106902;1275;24193;-51
2024/04/15 10:05:41;;;;;;;;;;;;;;;14.69;50.98;100541.58;106829;1275;22624;-48
2024/04/15 10:08:08;;;;;;;;;;;;;;;14.68;50.47;100539.15;106876;1275;24288;-51
2024/04/15 10:10:35;;;;;;;;;;;;;;;14.60;50.20;100531.36;106858;1275;25217;-48
2024/04/15 10:13:03;;;;;;;;;;;;;;;14.53;50.11;100523.36;106915;1275;24554;-49
2024/04/15 10:15:30;;;;;;;;;;;;;;;14.47;49.98;100514.03;106840;1275;22441;-49
2024/04/15 10:18:03;;;;;;;;;;;;;;;14.41;49.69;100504.04;106917;1275;22449;-52
2024/04/15 10:20:31;;;;;;;;;;;;;;;14.35;49.54;100494.73;106978;1275;22507;-52
2024/04/15 10:23:08;;;;;;;;;;;;;;;14.31;49.90;100481.20;106958;1275;25830;-49
2024/04/15 10:25:35;;;;;;;;;;;;;;;14.25;49.75;100472.97;106862;1275;22809;-49
2024/04/15 10:28:02;;;;;;;;;;;;;;;14.17;49.93;100467.67;106905;1275;22491;-48
2024/04/15 10:30:29;;;;;;;;;;;;;;;14.12;50.09;100468.57;106871;1275;23867;-48
2024/04/15 10:33:00;;;;;;;;;;;;;;;14.07;50.24;100463.52;106901;1275;25259;-48
2024/04/15 10:35:28;;;;;;;;;;;;;;;14.01;50.62;100454.20;106865;1275;24140;-47
2024/04/15 10:37:58;;;;;;;;;;;;;;;13.91;52.35;100441.77;106859;1275;22502;-48
2024/04/15 10:40:29;;;;;;;;;;;;;;;13.80;53.95;100423.97;107065;1275;25226;-47
2024/04/15 10:42:58;;;;;;;;;;;;;;;13.75;55.28;100410.36;106917;1275;25340;-46
2024/04/15 10:45:26;;;;;;;;;;;;;;;13.72;56.01;100407.14;106890;1275;24168;-50
2024/04/15 10:47:53;;;;;;;;;;;;;;;13.73;56.55;100396.09;107048;1275;22457;-49
2024/04/15 10:50:20;;;;;;;;;;;;;;;13.70;56.11;100386.71;107053;1275;22450;-49
2024/04/15 10:52:48;;;;;;;;;;;;;;;13.63;55.74;100385.88;106863;1275;22655;-47
2024/04/15 10:55:16;;;;;;;;;;;;;;;13.56;55.75;100383.00;106966;1275;25343;-48
2024/04/15 10:57:42;;;;;;;;;;;;;;;13.48;55.33;100376.36;106945;1275;24199;-49
2024/04/15 11:00:13;;;;;;;;;;;;;;;13.43;55.82;100363.42;106835;1275;25259;-48
2024/04/15 11:02:43;;;;;;;;;;;;;;;13.37;56.68;100355.35;106930;1275;22672;-46
2024/04/15 11:05:11;;;;;;;;;;;;;;;13.30;56.91;100346.45;106932;1275;25278;-48
2024/04/15 11:07:38;;;;;;;;;;;;;;;13.19;56.70;100343.52;106957;1275;24154;-51
2024/04/15 11:10:07;;;;;;;;;;;;;;;13.09;57.39;100344.48;106943;1275;25437;-43
2024/04/15 11:12:36;;;;;;;;;;;;;;;12.97;57.74;100340.74;107108;1263;23881;-48
2024/04/15 11:15:03;;;;;;;;;;;;;;;12.85;58.77;100335.61;107041;1275;25495;-44
2024/04/15 11:17:30;;;;;;;;;;;;;;;12.71;59.03;100327.42;107036;1275;23840;-45
2024/04/15 11:20:00;;;;;;;;;;;;;;;12.59;59.88;100315.58;106953;1275;24203;-45
2024/04/15 11:22:27;;;;;;;;;;;;;;;12.45;60.81;100306.11;106946;1275;25388;-46
2024/04/15 11:24:54;;;;;;;;;;;;;;;12.33;61.30;100296.70;107052;1275;22445;-45
2024/04/15 11:27:21;;;;;;;;;;;;;;;12.24;61.87;100290.29;107018;1275;23756;-46
2024/04/15 11:29:48;;;;;;;;;;;;;;;12.19;62.78;100282.10;106965;1275;25893;-45
2024/04/15 11:32:22;;;;;;;;;;;;;;;12.16;63.21;100271.20;106913;1275;22602;-44
2024/04/15 11:34:49;;;;;;;;;;;;;;;12.11;63.73;100270.27;107062;1275;22511;-45
2024/04/15 11:37:19;;;;;;;;;;;;;;;12.05;64.04;100276.41;107004;1275;22643;-45
2024/04/15 11:39:46;;;;;;;;;;;;;;;11.98;64.65;100261.86;106908;1275;23796;-43
2024/04/15 11:42:13;;;;;;;;;;;;;;;11.92;65.37;100251.26;106949;1275;25264;-44
2024/04/15 11:44:40;;;;;;;;;;;;;;;11.85;65.90;100258.88;107030;1275;25335;-44
2024/04/15 11:47:11;;;;;;;;;;;;;;;11.79;66.40;100269.00;106960;1275;24110;-45
2024/04/15 11:49:38;;;;;;;;;;;;;;;11.74;67.08;100260.87;106935;1275;25172;-44
2024/04/15 11:52:05;;;;;;;;;;;;;;;11.68;67.41;100254.73;106922;1275;22802;-48
2024/04/15 11:54:32;;;;;;;;;;;;;;;11.64;68.53;100251.45;106912;1275;24145;-43
2024/04/15 11:56:58;;;;;;;;;;;;;;;11.54;68.43;100248.27;107032;1275;23129;-44
2024/04/15 11:59:25;;;;;;;;;;;;;;;11.45;69.33;100246.79;107076;1275;23918;-43
2024/04/15 12:01:55;;;;;;;;;;;;;;;11.34;69.06;100245.21;107076;1275;22601;-46
2024/04/15 12:04:24;;;;;;;;;;;;;;;11.21;69.27;100231.12;107045;1273;25332;-43
2024/04/15 12:06:51;;;;;;;;;;;;;;;11.13;70.08;100227.38;107000;1275;22496;-46
2024/04/15 12:09:18;;;;;;;;;;;;;;;11.09;70.64;100221.50;106961;1271;22615;-43
2024/04/15 12:11:45;;;;;;;;;;;;;;;11.05;71.40;100204.05;106891;1275;22456;-45
2024/04/15 12:14:13;;;;;;;;;;;;;;;11.01;71.71;100193.58;107033;1275;22519;-44
2024/04/15 12:16:39;;;;;;;;;;;;;;;10.98;72.04;100186.02;107044;1275;22482;-44
2024/04/15 12:19:06;;;;;;;;;;;;;;;10.97;72.75;100167.88;107043;1275;24398;-46
2024/04/15 12:21:33;;;;;;;;;;;;;;;10.95;73.01;100160.20;106959;1275;23010;-45
2024/04/15 12:24:01;;;;;;;;;;;;;;;10.98;73.65;100153.67;107005;1275;22649;-46
2024/04/15 12:26:28;;;;;;;;;;;;;;;11.06;74.25;100142.67;107116;1275;24138;-44
2024/04/15 12:28:55;;;;;;;;;;;;;;;11.15;74.16;100133.69;106963;1275;24209;-45
2024/04/15 12:31:21;;;;;;;;;;;;;;;11.22;73.65;100118.36;106886;1275;22521;-45